sensor_id;sensor_type;location;lat;lon;timestamp;P1;durP1;ratioP1;P2;durP2;ratioP2
72895;SDS011;61036;53.224;6.554;2023-06-22T00:00:48;18.80;;;14.33;;
72895;SDS011;61036;53.224;6.554;2023-06-22T00:03:14;17.17;;;13.63;;
72895;SDS011;61036;53.224;6.554;2023-06-22T00:05:40;15.97;;;13.37;;
72895;SDS011;61036;53.224;6.554;2023-06-22T00:08:05;19.13;;;13.67;;
72895;SDS011;61036;53.224;6.554;2023-06-22T00:10:31;17.03;;;13.83;;
72895;SDS011;61036;53.224;6.554;2023-06-22T00:12:56;18.70;;;14.40;;
72895;SDS011;61036;53.224;6.554;2023-06-22T00:15:22;19.37;;;15.50;;
72895;SDS011;61036;53.224;6.554;2023-06-22T00:17:48;19.07;;;15.27;;
72895;SDS011;61036;53.224;6.554;2023-06-22T00:20:14;21.80;;;16.77;;
72895;SDS011;61036;53.224;6.554;2023-06-22T00:22:40;19.83;;;14.73;;
72895;SDS011;61036;53.224;6.554;2023-06-22T00:25:06;18.67;;;15.83;;
72895;SDS011;61036;53.224;6.554;2023-06-22T00:27:32;21.67;;;16.20;;
72895;SDS011;61036;53.224;6.554;2023-06-22T00:29:57;20.10;;;16.27;;
72895;SDS011;61036;53.224;6.554;2023-06-22T00:32:23;19.67;;;14.73;;
72895;SDS011;61036;53.224;6.554;2023-06-22T00:34:48;22.47;;;16.80;;
72895;SDS011;61036;53.224;6.554;2023-06-22T00:37:15;19.57;;;15.87;;
72895;SDS011;61036;53.224;6.554;2023-06-22T00:39:42;18.37;;;15.23;;
72895;SDS011;61036;53.224;6.554;2023-06-22T00:42:08;20.53;;;15.73;;
72895;SDS011;61036;53.224;6.554;2023-06-22T00:44:34;19.70;;;16.30;;
72895;SDS011;61036;53.224;6.554;2023-06-22T00:47:00;20.00;;;16.13;;
72895;SDS011;61036;53.224;6.554;2023-06-22T00:49:26;18.43;;;13.67;;
72895;SDS011;61036;53.224;6.554;2023-06-22T00:51:52;21.30;;;15.73;;
72895;SDS011;61036;53.224;6.554;2023-06-22T00:54:17;21.00;;;17.03;;
72895;SDS011;61036;53.224;6.554;2023-06-22T00:56:50;19.93;;;16.33;;
72895;SDS011;61036;53.224;6.554;2023-06-22T00:59:20;19.00;;;15.30;;
72895;SDS011;61036;53.224;6.554;2023-06-22T01:01:46;18.10;;;14.13;;
72895;SDS011;61036;53.224;6.554;2023-06-22T01:04:11;21.13;;;16.17;;
72895;SDS011;61036;53.224;6.554;2023-06-22T01:09:49;19.60;;;15.03;;
72895;SDS011;61036;53.224;6.554;2023-06-22T01:12:22;20.47;;;14.93;;
72895;SDS011;61036;53.224;6.554;2023-06-22T01:14:53;20.67;;;16.83;;
72895;SDS011;61036;53.224;6.554;2023-06-22T01:17:23;23.80;;;17.70;;
72895;SDS011;61036;53.224;6.554;2023-06-22T01:19:51;20.77;;;16.27;;
72895;SDS011;61036;53.224;6.554;2023-06-22T01:22:30;20.47;;;15.73;;
72895;SDS011;61036;53.224;6.554;2023-06-22T01:27:33;16.63;;;14.40;;
72895;SDS011;61036;53.224;6.554;2023-06-22T01:30:10;18.03;;;14.43;;
72895;SDS011;61036;53.224;6.554;2023-06-22T01:32:39;19.00;;;15.97;;
72895;SDS011;61036;53.224;6.554;2023-06-22T01:35:06;21.83;;;18.23;;
72895;SDS011;61036;53.224;6.554;2023-06-22T01:37:34;26.97;;;23.00;;
72895;SDS011;61036;53.224;6.554;2023-06-22T01:40:02;23.50;;;19.53;;
72895;SDS011;61036;53.224;6.554;2023-06-22T01:42:31;21.93;;;19.53;;
72895;SDS011;61036;53.224;6.554;2023-06-22T01:44:58;21.30;;;18.63;;
72895;SDS011;61036;53.224;6.554;2023-06-22T01:47:25;20.03;;;17.87;;
72895;SDS011;61036;53.224;6.554;2023-06-22T01:49:52;24.87;;;20.73;;
72895;SDS011;61036;53.224;6.554;2023-06-22T01:52:19;21.43;;;19.23;;
72895;SDS011;61036;53.224;6.554;2023-06-22T01:54:48;25.60;;;20.93;;
72895;SDS011;61036;53.224;6.554;2023-06-22T01:57:14;22.60;;;19.80;;
72895;SDS011;61036;53.224;6.554;2023-06-22T01:59:48;18.73;;;16.73;;
72895;SDS011;61036;53.224;6.554;2023-06-22T02:02:27;23.30;;;20.10;;
72895;SDS011;61036;53.224;6.554;2023-06-22T02:05:05;22.70;;;19.03;;
72895;SDS011;61036;53.224;6.554;2023-06-22T02:07:44;26.47;;;22.90;;
72895;SDS011;61036;53.224;6.554;2023-06-22T02:10:34;19.87;;;17.73;;
72895;SDS011;61036;53.224;6.554;2023-06-22T02:13:01;24.60;;;21.00;;
72895;SDS011;61036;53.224;6.554;2023-06-22T02:15:29;21.00;;;18.80;;
72895;SDS011;61036;53.224;6.554;2023-06-22T02:17:56;20.07;;;17.60;;
72895;SDS011;61036;53.224;6.554;2023-06-22T02:20:23;22.33;;;19.97;;
72895;SDS011;61036;53.224;6.554;2023-06-22T02:22:49;23.70;;;19.20;;
72895;SDS011;61036;53.224;6.554;2023-06-22T02:25:15;25.57;;;20.83;;
72895;SDS011;61036;53.224;6.554;2023-06-22T02:27:40;25.83;;;20.70;;
72895;SDS011;61036;53.224;6.554;2023-06-22T02:30:07;23.90;;;19.93;;
72895;SDS011;61036;53.224;6.554;2023-06-22T02:32:34;23.40;;;19.57;;
72895;SDS011;61036;53.224;6.554;2023-06-22T02:34:59;24.73;;;20.10;;
72895;SDS011;61036;53.224;6.554;2023-06-22T02:37:29;22.13;;;18.37;;
72895;SDS011;61036;53.224;6.554;2023-06-22T02:39:55;25.13;;;21.73;;
72895;SDS011;61036;53.224;6.554;2023-06-22T02:42:21;25.37;;;20.20;;
72895;SDS011;61036;53.224;6.554;2023-06-22T02:44:47;26.77;;;22.23;;
72895;SDS011;61036;53.224;6.554;2023-06-22T02:47:13;24.77;;;20.47;;
72895;SDS011;61036;53.224;6.554;2023-06-22T02:49:39;22.33;;;19.27;;
72895;SDS011;61036;53.224;6.554;2023-06-22T02:52:04;26.00;;;21.20;;
72895;SDS011;61036;53.224;6.554;2023-06-22T02:54:30;24.47;;;20.03;;
72895;SDS011;61036;53.224;6.554;2023-06-22T02:56:56;24.67;;;19.13;;
72895;SDS011;61036;53.224;6.554;2023-06-22T02:59:21;29.97;;;22.10;;
72895;SDS011;61036;53.224;6.554;2023-06-22T03:01:50;26.53;;;21.70;;
72895;SDS011;61036;53.224;6.554;2023-06-22T03:04:21;26.43;;;21.40;;
72895;SDS011;61036;53.224;6.554;2023-06-22T03:06:46;25.73;;;20.93;;
72895;SDS011;61036;53.224;6.554;2023-06-22T03:09:16;26.97;;;21.40;;
72895;SDS011;61036;53.224;6.554;2023-06-22T03:11:42;22.73;;;18.97;;
72895;SDS011;61036;53.224;6.554;2023-06-22T03:14:08;28.40;;;24.37;;
72895;SDS011;61036;53.224;6.554;2023-06-22T03:16:33;25.70;;;20.23;;
72895;SDS011;61036;53.224;6.554;2023-06-22T03:18:59;26.77;;;20.97;;
72895;SDS011;61036;53.224;6.554;2023-06-22T03:21:27;23.33;;;19.87;;
72895;SDS011;61036;53.224;6.554;2023-06-22T03:23:53;23.80;;;19.60;;
72895;SDS011;61036;53.224;6.554;2023-06-22T03:26:19;24.90;;;20.43;;
72895;SDS011;61036;53.224;6.554;2023-06-22T03:28:45;23.07;;;19.40;;
72895;SDS011;61036;53.224;6.554;2023-06-22T03:31:11;24.40;;;20.17;;
72895;SDS011;61036;53.224;6.554;2023-06-22T03:33:38;25.80;;;20.17;;
72895;SDS011;61036;53.224;6.554;2023-06-22T03:36:04;25.60;;;20.07;;
72895;SDS011;61036;53.224;6.554;2023-06-22T03:38:30;24.43;;;20.67;;
72895;SDS011;61036;53.224;6.554;2023-06-22T03:40:56;27.33;;;20.90;;
72895;SDS011;61036;53.224;6.554;2023-06-22T03:43:23;27.27;;;21.20;;
72895;SDS011;61036;53.224;6.554;2023-06-22T03:45:48;27.60;;;23.37;;
72895;SDS011;61036;53.224;6.554;2023-06-22T03:48:14;26.33;;;22.13;;
72895;SDS011;61036;53.224;6.554;2023-06-22T03:54:14;22.60;;;19.40;;
72895;SDS011;61036;53.224;6.554;2023-06-22T03:56:40;23.93;;;20.17;;
72895;SDS011;61036;53.224;6.554;2023-06-22T03:59:05;25.67;;;19.53;;
72895;SDS011;61036;53.224;6.554;2023-06-22T04:01:31;24.50;;;20.80;;
72895;SDS011;61036;53.224;6.554;2023-06-22T04:03:56;29.00;;;22.60;;
72895;SDS011;61036;53.224;6.554;2023-06-22T04:06:34;25.67;;;21.80;;
72895;SDS011;61036;53.224;6.554;2023-06-22T04:09:00;27.13;;;22.27;;
72895;SDS011;61036;53.224;6.554;2023-06-22T04:11:26;27.57;;;23.17;;
72895;SDS011;61036;53.224;6.554;2023-06-22T04:13:51;27.73;;;23.27;;
72895;SDS011;61036;53.224;6.554;2023-06-22T04:16:17;26.00;;;22.33;;
72895;SDS011;61036;53.224;6.554;2023-06-22T04:18:42;31.73;;;26.27;;
72895;SDS011;61036;53.224;6.554;2023-06-22T04:21:09;25.70;;;21.60;;
72895;SDS011;61036;53.224;6.554;2023-06-22T04:23:35;26.23;;;21.63;;
72895;SDS011;61036;53.224;6.554;2023-06-22T04:26:01;26.07;;;21.23;;
72895;SDS011;61036;53.224;6.554;2023-06-22T04:28:26;27.40;;;22.40;;
72895;SDS011;61036;53.224;6.554;2023-06-22T04:30:52;29.00;;;24.40;;
72895;SDS011;61036;53.224;6.554;2023-06-22T04:33:17;28.07;;;22.67;;
72895;SDS011;61036;53.224;6.554;2023-06-22T04:35:45;26.67;;;22.17;;
72895;SDS011;61036;53.224;6.554;2023-06-22T04:38:12;28.30;;;23.30;;
72895;SDS011;61036;53.224;6.554;2023-06-22T04:40:41;24.07;;;20.37;;
72895;SDS011;61036;53.224;6.554;2023-06-22T04:43:06;26.07;;;21.30;;
72895;SDS011;61036;53.224;6.554;2023-06-22T04:45:32;27.50;;;22.70;;
72895;SDS011;61036;53.224;6.554;2023-06-22T04:47:58;30.17;;;22.73;;
72895;SDS011;61036;53.224;6.554;2023-06-22T04:50:24;33.67;;;27.13;;
72895;SDS011;61036;53.224;6.554;2023-06-22T04:52:50;29.17;;;24.77;;
72895;SDS011;61036;53.224;6.554;2023-06-22T04:55:16;30.57;;;23.50;;
72895;SDS011;61036;53.224;6.554;2023-06-22T04:57:47;27.33;;;21.83;;
72895;SDS011;61036;53.224;6.554;2023-06-22T05:00:17;33.33;;;25.47;;
72895;SDS011;61036;53.224;6.554;2023-06-22T05:02:45;33.00;;;25.13;;
72895;SDS011;61036;53.224;6.554;2023-06-22T05:05:12;30.33;;;23.93;;
72895;SDS011;61036;53.224;6.554;2023-06-22T05:07:45;29.17;;;23.30;;
72895;SDS011;61036;53.224;6.554;2023-06-22T05:10:13;28.80;;;22.03;;
72895;SDS011;61036;53.224;6.554;2023-06-22T05:12:39;27.47;;;23.00;;
72895;SDS011;61036;53.224;6.554;2023-06-22T05:15:09;26.50;;;23.27;;
72895;SDS011;61036;53.224;6.554;2023-06-22T05:17:36;26.30;;;21.80;;
72895;SDS011;61036;53.224;6.554;2023-06-22T05:20:06;25.33;;;21.80;;
72895;SDS011;61036;53.224;6.554;2023-06-22T05:22:32;25.93;;;21.67;;
72895;SDS011;61036;53.224;6.554;2023-06-22T05:24:57;25.47;;;21.80;;
72895;SDS011;61036;53.224;6.554;2023-06-22T05:27:23;22.30;;;19.90;;
72895;SDS011;61036;53.224;6.554;2023-06-22T05:29:48;23.43;;;20.77;;
72895;SDS011;61036;53.224;6.554;2023-06-22T05:32:14;26.93;;;24.13;;
72895;SDS011;61036;53.224;6.554;2023-06-22T05:34:39;29.17;;;25.37;;
72895;SDS011;61036;53.224;6.554;2023-06-22T05:37:05;25.30;;;21.57;;
72895;SDS011;61036;53.224;6.554;2023-06-22T05:39:31;26.20;;;22.27;;
72895;SDS011;61036;53.224;6.554;2023-06-22T05:41:57;25.13;;;21.53;;
72895;SDS011;61036;53.224;6.554;2023-06-22T05:44:22;24.27;;;21.40;;
72895;SDS011;61036;53.224;6.554;2023-06-22T05:46:48;27.17;;;24.07;;
72895;SDS011;61036;53.224;6.554;2023-06-22T05:49:13;26.70;;;21.37;;
72895;SDS011;61036;53.224;6.554;2023-06-22T05:51:40;31.80;;;24.40;;
72895;SDS011;61036;53.224;6.554;2023-06-22T05:54:05;24.30;;;18.57;;
72895;SDS011;61036;53.224;6.554;2023-06-22T05:56:33;23.70;;;20.53;;
72895;SDS011;61036;53.224;6.554;2023-06-22T05:58:58;23.67;;;19.80;;
72895;SDS011;61036;53.224;6.554;2023-06-22T06:01:24;23.00;;;19.77;;
72895;SDS011;61036;53.224;6.554;2023-06-22T06:03:51;24.67;;;18.97;;
72895;SDS011;61036;53.224;6.554;2023-06-22T06:06:18;26.00;;;20.07;;
72895;SDS011;61036;53.224;6.554;2023-06-22T06:08:45;24.30;;;19.07;;
72895;SDS011;61036;53.224;6.554;2023-06-22T06:11:10;21.87;;;16.60;;
72895;SDS011;61036;53.224;6.554;2023-06-22T06:13:36;24.50;;;21.10;;
72895;SDS011;61036;53.224;6.554;2023-06-22T06:16:02;22.73;;;18.57;;
72895;SDS011;61036;53.224;6.554;2023-06-22T06:18:27;22.33;;;18.60;;
72895;SDS011;61036;53.224;6.554;2023-06-22T06:20:52;21.83;;;16.87;;
72895;SDS011;61036;53.224;6.554;2023-06-22T06:23:18;25.77;;;22.30;;
72895;SDS011;61036;53.224;6.554;2023-06-22T06:25:44;26.03;;;22.93;;
72895;SDS011;61036;53.224;6.554;2023-06-22T06:28:09;21.77;;;17.23;;
72895;SDS011;61036;53.224;6.554;2023-06-22T06:30:35;23.57;;;20.43;;
72895;SDS011;61036;53.224;6.554;2023-06-22T06:33:02;22.60;;;19.00;;
72895;SDS011;61036;53.224;6.554;2023-06-22T06:35:28;19.33;;;15.97;;
72895;SDS011;61036;53.224;6.554;2023-06-22T06:37:53;21.97;;;18.77;;
72895;SDS011;61036;53.224;6.554;2023-06-22T06:40:19;22.53;;;18.60;;
72895;SDS011;61036;53.224;6.554;2023-06-22T06:42:46;21.20;;;17.57;;
72895;SDS011;61036;53.224;6.554;2023-06-22T06:45:16;19.27;;;17.13;;
72895;SDS011;61036;53.224;6.554;2023-06-22T06:47:43;18.27;;;14.83;;
72895;SDS011;61036;53.224;6.554;2023-06-22T06:50:09;16.03;;;14.33;;
72895;SDS011;61036;53.224;6.554;2023-06-22T06:52:35;15.87;;;14.17;;
72895;SDS011;61036;53.224;6.554;2023-06-22T06:55:01;17.13;;;13.97;;
72895;SDS011;61036;53.224;6.554;2023-06-22T06:57:27;17.70;;;15.37;;
72895;SDS011;61036;53.224;6.554;2023-06-22T06:59:57;17.20;;;14.20;;
72895;SDS011;61036;53.224;6.554;2023-06-22T07:02:23;18.50;;;14.33;;
72895;SDS011;61036;53.224;6.554;2023-06-22T07:04:49;16.27;;;13.90;;
72895;SDS011;61036;53.224;6.554;2023-06-22T07:07:14;17.17;;;14.73;;
72895;SDS011;61036;53.224;6.554;2023-06-22T07:09:40;19.53;;;16.47;;
72895;SDS011;61036;53.224;6.554;2023-06-22T07:12:06;16.47;;;13.63;;
72895;SDS011;61036;53.224;6.554;2023-06-22T07:14:31;13.97;;;12.40;;
72895;SDS011;61036;53.224;6.554;2023-06-22T07:16:58;15.87;;;13.60;;
72895;SDS011;61036;53.224;6.554;2023-06-22T07:19:27;15.07;;;13.47;;
72895;SDS011;61036;53.224;6.554;2023-06-22T07:21:53;17.57;;;14.57;;
72895;SDS011;61036;53.224;6.554;2023-06-22T07:24:20;15.63;;;13.37;;
72895;SDS011;61036;53.224;6.554;2023-06-22T07:26:49;18.47;;;14.87;;
72895;SDS011;61036;53.224;6.554;2023-06-22T07:29:16;16.10;;;12.97;;
72895;SDS011;61036;53.224;6.554;2023-06-22T07:31:42;16.30;;;13.80;;
72895;SDS011;61036;53.224;6.554;2023-06-22T07:34:08;15.37;;;13.53;;
72895;SDS011;61036;53.224;6.554;2023-06-22T07:36:34;17.00;;;13.20;;
72895;SDS011;61036;53.224;6.554;2023-06-22T07:39:01;15.37;;;11.03;;
72895;SDS011;61036;53.224;6.554;2023-06-22T07:41:28;11.83;;;9.63;;
72895;SDS011;61036;53.224;6.554;2023-06-22T07:43:53;13.27;;;9.27;;
72895;SDS011;61036;53.224;6.554;2023-06-22T07:46:19;10.37;;;7.27;;
72895;SDS011;61036;53.224;6.554;2023-06-22T07:48:44;12.10;;;10.07;;
72895;SDS011;61036;53.224;6.554;2023-06-22T07:51:10;9.37;;;7.73;;
72895;SDS011;61036;53.224;6.554;2023-06-22T07:53:39;12.23;;;9.63;;
72895;SDS011;61036;53.224;6.554;2023-06-22T07:56:06;10.03;;;7.40;;
72895;SDS011;61036;53.224;6.554;2023-06-22T07:58:34;10.33;;;7.17;;
72895;SDS011;61036;53.224;6.554;2023-06-22T08:00:59;13.23;;;10.27;;
72895;SDS011;61036;53.224;6.554;2023-06-22T08:03:25;10.30;;;7.73;;
72895;SDS011;61036;53.224;6.554;2023-06-22T08:05:50;11.60;;;9.00;;
72895;SDS011;61036;53.224;6.554;2023-06-22T08:08:16;12.40;;;9.87;;
72895;SDS011;61036;53.224;6.554;2023-06-22T08:10:41;14.43;;;10.67;;
72895;SDS011;61036;53.224;6.554;2023-06-22T08:13:07;14.70;;;8.87;;
72895;SDS011;61036;53.224;6.554;2023-06-22T08:15:33;11.73;;;9.13;;
72895;SDS011;61036;53.224;6.554;2023-06-22T08:17:59;12.90;;;10.53;;
72895;SDS011;61036;53.224;6.554;2023-06-22T08:20:25;13.90;;;11.03;;
72895;SDS011;61036;53.224;6.554;2023-06-22T08:22:53;10.93;;;8.23;;
72895;SDS011;61036;53.224;6.554;2023-06-22T08:25:20;11.77;;;9.17;;
72895;SDS011;61036;53.224;6.554;2023-06-22T08:27:46;10.20;;;8.10;;
72895;SDS011;61036;53.224;6.554;2023-06-22T08:30:14;11.47;;;9.50;;
72895;SDS011;61036;53.224;6.554;2023-06-22T08:32:40;10.60;;;8.40;;
72895;SDS011;61036;53.224;6.554;2023-06-22T08:35:05;10.70;;;7.97;;
72895;SDS011;61036;53.224;6.554;2023-06-22T08:37:34;11.67;;;8.03;;
72895;SDS011;61036;53.224;6.554;2023-06-22T08:40:00;11.33;;;8.50;;
72895;SDS011;61036;53.224;6.554;2023-06-22T08:42:29;10.63;;;8.03;;
72895;SDS011;61036;53.224;6.554;2023-06-22T08:44:54;10.70;;;8.43;;
72895;SDS011;61036;53.224;6.554;2023-06-22T08:47:20;10.63;;;8.97;;
72895;SDS011;61036;53.224;6.554;2023-06-22T08:49:46;10.17;;;9.03;;
72895;SDS011;61036;53.224;6.554;2023-06-22T08:52:12;11.50;;;8.97;;
72895;SDS011;61036;53.224;6.554;2023-06-22T08:54:38;11.23;;;9.87;;
72895;SDS011;61036;53.224;6.554;2023-06-22T08:57:03;12.20;;;10.03;;
72895;SDS011;61036;53.224;6.554;2023-06-22T08:59:29;10.23;;;8.53;;
72895;SDS011;61036;53.224;6.554;2023-06-22T09:01:55;10.40;;;7.70;;
72895;SDS011;61036;53.224;6.554;2023-06-22T09:04:24;12.30;;;10.70;;
72895;SDS011;61036;53.224;6.554;2023-06-22T09:06:49;12.87;;;7.50;;
72895;SDS011;61036;53.224;6.554;2023-06-22T09:09:17;7.97;;;6.27;;
72895;SDS011;61036;53.224;6.554;2023-06-22T09:11:43;9.53;;;7.70;;
72895;SDS011;61036;53.224;6.554;2023-06-22T09:14:09;12.00;;;10.00;;
72895;SDS011;61036;53.224;6.554;2023-06-22T09:16:35;9.43;;;6.77;;
72895;SDS011;61036;53.224;6.554;2023-06-22T09:19:01;9.57;;;7.10;;
72895;SDS011;61036;53.224;6.554;2023-06-22T09:21:26;12.17;;;8.97;;
72895;SDS011;61036;53.224;6.554;2023-06-22T09:23:52;9.23;;;6.33;;
72895;SDS011;61036;53.224;6.554;2023-06-22T09:26:18;11.17;;;8.43;;
72895;SDS011;61036;53.224;6.554;2023-06-22T09:28:44;9.57;;;7.90;;
72895;SDS011;61036;53.224;6.554;2023-06-22T09:31:09;9.97;;;8.10;;
72895;SDS011;61036;53.224;6.554;2023-06-22T09:33:35;9.30;;;6.97;;
72895;SDS011;61036;53.224;6.554;2023-06-22T09:36:03;13.33;;;10.70;;
72895;SDS011;61036;53.224;6.554;2023-06-22T09:38:37;9.33;;;7.60;;
72895;SDS011;61036;53.224;6.554;2023-06-22T09:41:03;11.43;;;8.97;;
72895;SDS011;61036;53.224;6.554;2023-06-22T09:43:29;12.40;;;9.77;;
72895;SDS011;61036;53.224;6.554;2023-06-22T09:45:56;8.63;;;6.73;;
72895;SDS011;61036;53.224;6.554;2023-06-22T09:48:22;11.90;;;9.13;;
72895;SDS011;61036;53.224;6.554;2023-06-22T09:50:47;8.83;;;7.20;;
72895;SDS011;61036;53.224;6.554;2023-06-22T09:53:13;9.83;;;8.07;;
72895;SDS011;61036;53.224;6.554;2023-06-22T09:55:38;12.07;;;9.87;;
72895;SDS011;61036;53.224;6.554;2023-06-22T09:58:04;10.20;;;9.20;;
72895;SDS011;61036;53.224;6.554;2023-06-22T10:00:29;10.70;;;9.50;;
72895;SDS011;61036;53.224;6.554;2023-06-22T10:02:55;11.27;;;9.67;;
72895;SDS011;61036;53.224;6.554;2023-06-22T10:05:21;10.90;;;7.93;;
72895;SDS011;61036;53.224;6.554;2023-06-22T10:07:47;11.03;;;9.33;;
72895;SDS011;61036;53.224;6.554;2023-06-22T10:10:12;8.60;;;7.43;;
72895;SDS011;61036;53.224;6.554;2023-06-22T10:12:42;10.83;;;8.77;;
72895;SDS011;61036;53.224;6.554;2023-06-22T10:15:10;11.13;;;7.93;;
72895;SDS011;61036;53.224;6.554;2023-06-22T10:17:36;8.67;;;7.60;;
72895;SDS011;61036;53.224;6.554;2023-06-22T10:20:02;10.53;;;8.77;;
72895;SDS011;61036;53.224;6.554;2023-06-22T10:22:37;8.83;;;6.13;;
72895;SDS011;61036;53.224;6.554;2023-06-22T10:25:09;11.00;;;9.27;;
72895;SDS011;61036;53.224;6.554;2023-06-22T10:27:36;10.93;;;8.80;;
72895;SDS011;61036;53.224;6.554;2023-06-22T10:30:05;10.10;;;8.37;;
72895;SDS011;61036;53.224;6.554;2023-06-22T10:32:32;10.87;;;9.30;;
72895;SDS011;61036;53.224;6.554;2023-06-22T10:34:58;11.33;;;7.33;;
72895;SDS011;61036;53.224;6.554;2023-06-22T10:37:23;10.20;;;7.93;;
72895;SDS011;61036;53.224;6.554;2023-06-22T10:39:49;12.27;;;8.77;;
72895;SDS011;61036;53.224;6.554;2023-06-22T10:42:14;10.17;;;7.93;;
72895;SDS011;61036;53.224;6.554;2023-06-22T10:44:40;9.80;;;7.70;;
72895;SDS011;61036;53.224;6.554;2023-06-22T10:47:06;10.33;;;7.20;;
72895;SDS011;61036;53.224;6.554;2023-06-22T10:49:32;11.73;;;9.13;;
72895;SDS011;61036;53.224;6.554;2023-06-22T10:51:57;12.07;;;9.27;;
72895;SDS011;61036;53.224;6.554;2023-06-22T10:54:23;8.87;;;7.17;;
72895;SDS011;61036;53.224;6.554;2023-06-22T10:56:48;9.13;;;7.87;;
72895;SDS011;61036;53.224;6.554;2023-06-22T10:59:14;9.83;;;8.57;;
72895;SDS011;61036;53.224;6.554;2023-06-22T11:01:40;11.03;;;9.93;;
72895;SDS011;61036;53.224;6.554;2023-06-22T11:04:05;11.57;;;10.37;;
72895;SDS011;61036;53.224;6.554;2023-06-22T11:06:31;10.63;;;7.03;;
72895;SDS011;61036;53.224;6.554;2023-06-22T11:08:56;8.03;;;6.07;;
72895;SDS011;61036;53.224;6.554;2023-06-22T11:11:23;9.40;;;7.87;;
72895;SDS011;61036;53.224;6.554;2023-06-22T11:13:48;9.67;;;7.43;;
72895;SDS011;61036;53.224;6.554;2023-06-22T11:16:14;11.97;;;9.43;;
72895;SDS011;61036;53.224;6.554;2023-06-22T11:18:39;10.03;;;7.70;;
72895;SDS011;61036;53.224;6.554;2023-06-22T11:21:05;11.40;;;8.97;;
72895;SDS011;61036;53.224;6.554;2023-06-22T11:23:30;12.90;;;9.67;;
72895;SDS011;61036;53.224;6.554;2023-06-22T11:25:56;10.23;;;8.33;;
72895;SDS011;61036;53.224;6.554;2023-06-22T11:28:21;10.40;;;8.53;;
72895;SDS011;61036;53.224;6.554;2023-06-22T11:30:47;11.27;;;8.07;;
72895;SDS011;61036;53.224;6.554;2023-06-22T11:33:12;10.67;;;8.40;;
72895;SDS011;61036;53.224;6.554;2023-06-22T11:35:38;10.80;;;8.30;;
72895;SDS011;61036;53.224;6.554;2023-06-22T11:38:03;10.83;;;7.67;;
72895;SDS011;61036;53.224;6.554;2023-06-22T11:40:30;11.00;;;8.57;;
72895;SDS011;61036;53.224;6.554;2023-06-22T11:42:55;8.07;;;6.03;;
72895;SDS011;61036;53.224;6.554;2023-06-22T11:45:21;10.17;;;7.93;;
72895;SDS011;61036;53.224;6.554;2023-06-22T11:47:47;11.47;;;7.50;;
72895;SDS011;61036;53.224;6.554;2023-06-22T11:50:12;11.33;;;9.83;;
72895;SDS011;61036;53.224;6.554;2023-06-22T11:52:38;11.27;;;7.43;;
72895;SDS011;61036;53.224;6.554;2023-06-22T11:55:04;10.63;;;9.03;;
72895;SDS011;61036;53.224;6.554;2023-06-22T11:57:32;10.97;;;9.50;;
72895;SDS011;61036;53.224;6.554;2023-06-22T11:59:59;10.17;;;8.43;;
72895;SDS011;61036;53.224;6.554;2023-06-22T12:02:25;10.53;;;8.27;;
72895;SDS011;61036;53.224;6.554;2023-06-22T12:04:50;9.53;;;8.23;;
72895;SDS011;61036;53.224;6.554;2023-06-22T12:07:17;9.63;;;7.83;;
72895;SDS011;61036;53.224;6.554;2023-06-22T12:09:43;10.30;;;8.90;;
72895;SDS011;61036;53.224;6.554;2023-06-22T12:12:09;10.33;;;7.43;;
72895;SDS011;61036;53.224;6.554;2023-06-22T12:14:35;10.43;;;7.13;;
72895;SDS011;61036;53.224;6.554;2023-06-22T12:17:00;10.13;;;7.30;;
72895;SDS011;61036;53.224;6.554;2023-06-22T12:19:26;8.40;;;7.27;;
72895;SDS011;61036;53.224;6.554;2023-06-22T12:21:51;11.40;;;9.77;;
72895;SDS011;61036;53.224;6.554;2023-06-22T12:24:17;9.63;;;8.33;;
72895;SDS011;61036;53.224;6.554;2023-06-22T12:26:42;9.20;;;6.70;;
72895;SDS011;61036;53.224;6.554;2023-06-22T12:29:08;8.17;;;5.57;;
72895;SDS011;61036;53.224;6.554;2023-06-22T12:31:35;8.67;;;5.97;;
72895;SDS011;61036;53.224;6.554;2023-06-22T12:34:01;7.33;;;5.33;;
72895;SDS011;61036;53.224;6.554;2023-06-22T12:36:27;11.20;;;7.63;;
72895;SDS011;61036;53.224;6.554;2023-06-22T12:38:52;6.57;;;4.80;;
72895;SDS011;61036;53.224;6.554;2023-06-22T12:41:19;8.47;;;7.13;;
72895;SDS011;61036;53.224;6.554;2023-06-22T12:43:44;9.33;;;6.73;;
72895;SDS011;61036;53.224;6.554;2023-06-22T12:46:10;7.53;;;5.27;;
72895;SDS011;61036;53.224;6.554;2023-06-22T12:48:35;7.23;;;5.53;;
72895;SDS011;61036;53.224;6.554;2023-06-22T12:51:06;8.23;;;5.87;;
72895;SDS011;61036;53.224;6.554;2023-06-22T12:53:33;8.70;;;6.73;;
72895;SDS011;61036;53.224;6.554;2023-06-22T12:55:58;9.57;;;6.60;;
72895;SDS011;61036;53.224;6.554;2023-06-22T12:58:24;8.97;;;5.70;;
72895;SDS011;61036;53.224;6.554;2023-06-22T13:00:49;7.60;;;6.40;;
72895;SDS011;61036;53.224;6.554;2023-06-22T13:03:15;7.47;;;5.10;;
72895;SDS011;61036;53.224;6.554;2023-06-22T13:05:40;7.77;;;5.37;;
72895;SDS011;61036;53.224;6.554;2023-06-22T13:08:06;6.70;;;4.97;;
72895;SDS011;61036;53.224;6.554;2023-06-22T13:10:33;9.73;;;6.13;;
72895;SDS011;61036;53.224;6.554;2023-06-22T13:12:58;7.10;;;5.50;;
72895;SDS011;61036;53.224;6.554;2023-06-22T13:15:26;7.23;;;4.70;;
72895;SDS011;61036;53.224;6.554;2023-06-22T13:17:53;6.60;;;3.80;;
72895;SDS011;61036;53.224;6.554;2023-06-22T13:20:19;7.50;;;4.80;;
72895;SDS011;61036;53.224;6.554;2023-06-22T13:22:44;7.30;;;4.23;;
72895;SDS011;61036;53.224;6.554;2023-06-22T13:25:10;8.30;;;5.00;;
72895;SDS011;61036;53.224;6.554;2023-06-22T13:27:40;6.13;;;4.27;;
72895;SDS011;61036;53.224;6.554;2023-06-22T13:30:07;9.30;;;5.40;;
72895;SDS011;61036;53.224;6.554;2023-06-22T13:32:33;6.33;;;3.57;;
72895;SDS011;61036;53.224;6.554;2023-06-22T13:34:59;6.60;;;4.33;;
72895;SDS011;61036;53.224;6.554;2023-06-22T13:37:25;9.20;;;3.53;;
72895;SDS011;61036;53.224;6.554;2023-06-22T13:39:50;7.23;;;4.20;;
72895;SDS011;61036;53.224;6.554;2023-06-22T13:42:16;7.23;;;4.40;;
72895;SDS011;61036;53.224;6.554;2023-06-22T13:44:42;5.70;;;4.07;;
72895;SDS011;61036;53.224;6.554;2023-06-22T13:47:07;6.07;;;3.67;;
72895;SDS011;61036;53.224;6.554;2023-06-22T13:49:33;6.03;;;3.63;;
72895;SDS011;61036;53.224;6.554;2023-06-22T13:51:58;8.53;;;4.40;;
72895;SDS011;61036;53.224;6.554;2023-06-22T13:54:24;5.23;;;3.43;;
72895;SDS011;61036;53.224;6.554;2023-06-22T13:56:49;6.40;;;4.30;;
72895;SDS011;61036;53.224;6.554;2023-06-22T13:59:15;7.80;;;3.60;;
72895;SDS011;61036;53.224;6.554;2023-06-22T14:01:41;5.93;;;3.90;;
72895;SDS011;61036;53.224;6.554;2023-06-22T14:04:06;5.50;;;3.80;;
72895;SDS011;61036;53.224;6.554;2023-06-22T14:06:32;8.23;;;3.70;;
72895;SDS011;61036;53.224;6.554;2023-06-22T14:08:57;5.90;;;3.00;;
72895;SDS011;61036;53.224;6.554;2023-06-22T14:11:24;7.17;;;4.10;;
72895;SDS011;61036;53.224;6.554;2023-06-22T14:13:49;6.03;;;3.80;;
72895;SDS011;61036;53.224;6.554;2023-06-22T14:16:15;5.87;;;3.13;;
72895;SDS011;61036;53.224;6.554;2023-06-22T14:18:40;5.87;;;2.70;;
72895;SDS011;61036;53.224;6.554;2023-06-22T14:21:06;5.63;;;3.20;;
72895;SDS011;61036;53.224;6.554;2023-06-22T14:23:32;4.53;;;2.57;;
72895;SDS011;61036;53.224;6.554;2023-06-22T14:25:58;5.60;;;2.90;;
72895;SDS011;61036;53.224;6.554;2023-06-22T14:28:23;4.27;;;2.30;;
72895;SDS011;61036;53.224;6.554;2023-06-22T14:30:49;5.33;;;2.40;;
72895;SDS011;61036;53.224;6.554;2023-06-22T14:33:14;4.57;;;2.60;;
72895;SDS011;61036;53.224;6.554;2023-06-22T14:35:40;4.30;;;2.50;;